Time;durP1;ratioP1;P1;durP2;ratioP2;P2;SDS_P1;SDS_P2;PMS_P1;PMS_P2;Temp;Humidity;BMP_temperature;BMP_pressure;BME280_temperature;BME280_humidity;BME280_pressure;Samples;Min_cycle;Max_cycle;Signal;HPM_P1;HPM_P2
2021/06/18 00:00:40;;;;;;;12.30;9.40;;;;;;;14.32;66.94;97579.14;1797000;79;26443;-80
2021/06/18 00:03:09;;;;;;;13.62;10.00;;;;;;;14.24;67.21;97572.69;1850414;76;25450;-81
2021/06/18 00:05:35;;;;;;;15.75;10.75;;;;;;;14.22;67.33;97575.33;1829875;77;28360;-80
2021/06/18 00:08:02;;;;;;;11.80;9.43;;;;;;;14.30;67.53;97570.39;1832684;76;25779;-80
2021/06/18 00:10:29;;;;;;;10.40;9.08;;;;;;;14.40;67.58;97568.50;1821335;77;25745;-87
2021/06/18 00:12:56;;;;;;;12.55;9.45;;;;;;;14.46;67.47;97568.95;1845901;77;25716;-83
2021/06/18 00:15:23;;;;;;;12.73;9.60;;;;;;;14.51;67.38;97571.77;1845949;76;25771;-86
2021/06/18 00:17:50;;;;;;;15.10;9.33;;;;;;;14.54;67.34;97575.39;1834980;77;28055;-86
2021/06/18 00:20:18;;;;;;;10.75;9.43;;;;;;;14.56;67.27;97574.63;1824201;76;25742;-85
2021/06/18 00:22:44;;;;;;;10.98;9.35;;;;;;;14.55;67.22;97568.91;1846106;77;25708;-85
2021/06/18 00:25:13;;;;;;;12.85;9.63;;;;;;;14.52;67.20;97572.08;1846025;76;25698;-86
2021/06/18 00:27:39;;;;;;;12.98;9.75;;;;;;;14.46;67.31;97571.66;1859756;76;25910;-84
2021/06/18 00:30:08;;;;;;;14.03;10.23;;;;;;;14.45;67.43;97565.92;1860293;76;27341;-86
2021/06/18 00:32:35;;;;;;;13.00;9.45;;;;;;;14.47;67.48;97565.70;1822631;77;25698;-86
2021/06/18 00:35:06;;;;;;;12.95;10.50;;;;;;;14.50;67.44;97556.53;1845608;77;26310;-79
2021/06/18 00:37:34;;;;;;;11.63;9.00;;;;;;;14.48;67.39;97561.40;1845576;77;25786;-88
2021/06/18 00:40:03;;;;;;;11.78;9.13;;;;;;;14.45;67.39;97563.74;1846098;77;26281;-87
2021/06/18 00:42:30;;;;;;;11.12;8.38;;;;;;;14.43;67.46;97565.33;1845661;76;27587;-84
2021/06/18 00:44:57;;;;;;;10.82;8.30;;;;;;;14.44;67.50;97568.88;1838558;76;25741;-89
2021/06/18 00:47:25;;;;;;;12.53;9.10;;;;;;;14.43;67.43;97569.93;1871908;76;26229;-88
2021/06/18 00:49:52;;;;;;;11.83;8.45;;;;;;;14.39;67.40;97572.23;1818053;77;25795;-88
2021/06/18 00:52:19;;;;;;;11.28;8.58;;;;;;;14.35;67.47;97570.53;1845966;77;25232;-93
2021/06/18 00:54:46;;;;;;;13.20;9.10;;;;;;;14.31;67.52;97567.14;1809576;77;28100;-88
2021/06/18 00:57:14;;;;;;;10.90;8.45;;;;;;;14.28;67.50;97571.67;1828132;76;25801;-87
2021/06/18 00:59:41;;;;;;;12.28;9.10;;;;;;;14.25;67.55;97572.16;1845889;77;25845;-87
2021/06/18 01:02:08;;;;;;;10.78;8.85;;;;;;;14.22;67.66;97571.25;1845971;77;25686;-86
2021/06/18 01:04:37;;;;;;;12.18;9.15;;;;;;;14.20;67.73;97563.86;1871702;76;25944;-80
2021/06/18 01:07:18;;;;;;;11.33;9.55;;;;;;;14.16;67.74;97564.02;1857371;76;27350;-89
2021/06/18 01:10:08;;;;;;;11.73;8.88;;;;;;;14.06;67.81;97562.69;1873394;76;25819;-88
2021/06/18 01:12:39;;;;;;;10.28;8.25;;;;;;;14.01;67.92;97563.89;1875476;76;26536;-86
2021/06/18 01:15:27;;;;;;;11.33;8.98;;;;;;;13.98;67.95;97564.38;1853721;76;25719;-80
2021/06/18 01:18:04;;;;;;;13.03;8.45;;;;;;;13.96;67.96;97561.58;1844244;77;25255;-85
2021/06/18 01:21:03;;;;;;;11.10;8.90;;;;;;;13.88;68.04;97549.16;1845832;77;27355;-82
2021/06/18 01:23:41;;;;;;;11.70;9.03;;;;;;;13.88;68.10;97552.41;1870435;76;25731;-83
2021/06/18 01:26:25;;;;;;;11.97;8.78;;;;;;;13.84;68.17;97545.24;1845005;77;25784;-80
2021/06/18 01:29:01;;;;;;;12.60;8.83;;;;;;;13.81;68.27;97553.83;1845307;77;26484;-86
2021/06/18 01:31:33;;;;;;;12.58;8.90;;;;;;;13.80;68.30;97549.45;1845617;77;25772;-82
2021/06/18 01:34:21;;;;;;;10.63;8.60;;;;;;;13.77;68.39;97549.91;1822860;76;27420;-82
2021/06/18 01:36:55;;;;;;;11.08;8.80;;;;;;;13.74;68.36;97544.95;1826365;76;25713;-82
2021/06/18 01:39:23;;;;;;;11.60;9.08;;;;;;;13.66;68.51;97542.53;1848736;76;25637;-83
2021/06/18 01:41:52;;;;;;;12.65;9.25;;;;;;;13.66;68.62;97546.60;1861967;76;25788;-80
2021/06/18 01:44:20;;;;;;;10.72;9.13;;;;;;;13.61;68.74;97550.02;1804772;77;25615;-85
2021/06/18 01:46:48;;;;;;;15.18;9.70;;;;;;;13.51;68.78;97552.97;1846036;77;27350;-79
2021/06/18 01:49:17;;;;;;;11.78;8.83;;;;;;;13.40;68.84;97552.36;1845822;77;25717;-87
2021/06/18 01:51:46;;;;;;;13.98;10.08;;;;;;;13.40;69.04;97554.55;1861767;76;25670;-80
2021/06/18 01:54:15;;;;;;;14.30;9.75;;;;;;;13.40;69.22;97552.36;1846112;76;26145;-81
2021/06/18 01:56:44;;;;;;;10.45;9.35;;;;;;;13.29;69.32;97553.38;1854334;76;25244;-79
2021/06/18 01:59:12;;;;;;;13.10;9.93;;;;;;;13.23;69.44;97559.72;1801829;79;27645;-82
2021/06/18 02:01:43;;;;;;;12.20;9.53;;;;;;;13.21;69.64;97553.69;1794790;79;26386;-83
2021/06/18 02:04:13;;;;;;;14.03;9.98;;;;;;;13.16;69.72;97564.36;1785794;79;25760;-89
2021/06/18 02:06:41;;;;;;;12.07;9.50;;;;;;;13.16;69.80;97557.59;1872117;76;26326;-88
2021/06/18 02:09:09;;;;;;;14.03;9.63;;;;;;;13.20;69.77;97554.73;1840507;76;25781;-80
2021/06/18 02:11:39;;;;;;;11.43;9.58;;;;;;;13.25;69.69;97562.21;1871464;75;27418;-87
2021/06/18 02:14:13;;;;;;;11.12;9.35;;;;;;;13.25;69.66;97558.98;1860343;76;25724;-84
2021/06/18 02:16:44;;;;;;;11.80;9.05;;;;;;;13.24;69.72;97561.37;1812028;77;25757;-87
2021/06/18 02:19:14;;;;;;;12.23;9.53;;;;;;;13.24;69.64;97566.80;1859921;76;25739;-93
2021/06/18 02:21:44;;;;;;;11.38;9.20;;;;;;;13.21;69.70;97567.77;1827422;76;25718;-90
2021/06/18 02:24:11;;;;;;;11.75;8.85;;;;;;;13.21;69.67;97575.38;1874179;76;27792;-93
2021/06/18 02:26:39;;;;;;;13.05;10.00;;;;;;;13.20;69.71;97577.78;1870416;76;25944;-80
2021/06/18 02:29:07;;;;;;;15.45;9.43;;;;;;;13.20;69.70;97577.78;1849334;76;25780;-90
2021/06/18 02:31:37;;;;;;;12.00;8.93;;;;;;;13.18;69.74;97573.10;1867282;76;25811;-89
2021/06/18 02:34:06;;;;;;;13.18;8.90;;;;;;;13.17;69.77;97571.44;1851833;76;25745;-92
2021/06/18 02:36:33;;;;;;;12.47;8.20;;;;;;;13.17;69.85;97571.44;1828591;77;27352;-79
2021/06/18 02:39:00;;;;;;;12.45;9.25;;;;;;;13.16;69.85;97573.84;1830484;76;25634;-84
2021/06/18 02:41:26;;;;;;;10.55;8.65;;;;;;;13.14;69.92;97577.34;1872121;75;25750;-83
2021/06/18 02:43:53;;;;;;;9.85;8.70;;;;;;;13.09;69.91;97580.36;1846152;77;26191;-93
2021/06/18 02:46:24;;;;;;;11.05;8.78;;;;;;;13.08;70.06;97582.24;1802455;77;25737;-86
2021/06/18 02:48:56;;;;;;;13.53;9.63;;;;;;;13.08;70.18;97576.83;1828123;77;27351;-88
2021/06/18 02:51:49;;;;;;;11.97;9.13;;;;;;;13.08;70.23;97579.53;1845814;76;25967;-80
2021/06/18 02:54:35;;;;;;;12.10;8.00;;;;;;;13.09;70.18;97581.19;1800624;77;25974;-87
2021/06/18 02:57:09;;;;;;;10.20;9.15;;;;;;;13.09;70.18;97577.66;1800610;77;25736;-92
2021/06/18 02:59:47;;;;;;;9.75;8.53;;;;;;;13.10;70.26;97576.61;1800621;77;26030;-91
2021/06/18 03:02:18;;;;;;;12.65;8.60;;;;;;;13.12;70.23;97587.53;1818066;78;27528;-89
2021/06/18 03:04:46;;;;;;;12.60;9.15;;;;;;;13.11;70.23;97588.58;1797632;77;26241;-86
2021/06/18 03:07:17;;;;;;;10.88;8.83;;;;;;;13.11;70.22;97587.75;1805199;78;25308;-90
2021/06/18 03:09:53;;;;;;;10.98;9.60;;;;;;;13.08;70.26;97586.31;1791585;78;26479;-91
2021/06/18 03:12:25;;;;;;;14.73;9.75;;;;;;;13.08;70.35;97589.02;1820670;78;25763;-87
2021/06/18 03:14:59;;;;;;;15.85;9.73;;;;;;;13.05;70.40;97586.75;1795251;77;28223;-90
2021/06/18 03:17:27;;;;;;;10.93;9.10;;;;;;;13.06;70.43;97589.77;1801975;78;25838;-88
2021/06/18 03:20:00;;;;;;;10.13;8.43;;;;;;;13.05;70.53;97590.81;1820690;77;25381;-91
2021/06/18 03:22:30;;;;;;;11.85;9.48;;;;;;;13.05;70.47;97592.16;1820661;78;26399;-93
2021/06/18 03:24:59;;;;;;;12.20;8.05;;;;;;;13.05;70.46;97598.94;1832641;77;25373;-93
2021/06/18 03:27:25;;;;;;;10.38;8.60;;;;;;;13.02;70.47;97596.70;1849748;77;27365;-91
2021/06/18 03:29:54;;;;;;;9.70;8.43;;;;;;;13.04;70.50;97595.92;1854853;77;25652;-90
2021/06/18 03:32:22;;;;;;;10.95;8.90;;;;;;;13.03;70.59;97594.30;1840754;77;25760;-89
2021/06/18 03:34:49;;;;;;;11.70;9.20;;;;;;;13.03;70.67;97598.88;1841323;77;25860;-94
2021/06/18 03:37:18;;;;;;;12.88;9.40;;;;;;;13.03;70.81;97599.72;1831561;77;25728;-87
2021/06/18 03:39:46;;;;;;;16.20;10.23;;;;;;;13.04;70.88;97601.34;1855224;77;27375;-83
2021/06/18 03:42:13;;;;;;;14.38;9.58;;;;;;;13.05;70.98;97605.72;1855097;76;26014;-93
2021/06/18 03:44:41;;;;;;;11.20;9.70;;;;;;;13.07;71.11;97607.68;1854845;77;25743;-92
2021/06/18 03:47:09;;;;;;;12.15;9.63;;;;;;;13.10;71.17;97607.25;1831483;77;26479;-84
2021/06/18 03:49:37;;;;;;;14.83;10.18;;;;;;;13.13;71.20;97609.52;1854422;77;26263;-79
2021/06/18 03:52:04;;;;;;;12.63;9.85;;;;;;;13.14;71.28;97609.86;1855114;77;27341;-83
2021/06/18 03:54:32;;;;;;;15.00;10.30;;;;;;;13.20;71.41;97608.95;1854825;76;25649;-80
2021/06/18 03:57:02;;;;;;;14.68;10.80;;;;;;;13.25;71.51;97606.41;1855133;77;25725;-94
2021/06/18 03:59:29;;;;;;;13.28;10.32;;;;;;;13.29;71.54;97604.89;1855080;76;25753;-95
2021/06/18 04:01:57;;;;;;;15.55;10.35;;;;;;;13.38;71.62;97605.98;1848736;76;25778;-91
2021/06/18 04:04:27;;;;;;;14.55;10.05;;;;;;;13.42;71.60;97601.75;1845613;77;27369;-86
2021/06/18 04:06:55;;;;;;;13.38;10.53;;;;;;;13.45;71.72;97595.88;1865364;76;25676;-90
2021/06/18 04:09:22;;;;;;;14.78;10.80;;;;;;;13.50;71.74;97593.34;1853358;76;25259;-79
2021/06/18 04:11:49;;;;;;;16.32;10.60;;;;;;;13.54;71.71;97602.13;1845728;76;25946;-85
2021/06/18 04:14:16;;;;;;;13.65;11.12;;;;;;;13.59;71.73;97598.75;1851115;76;25682;-79
2021/06/18 04:16:43;;;;;;;17.62;11.68;;;;;;;13.64;71.85;97598.92;1845095;76;27341;-79
2021/06/18 04:19:11;;;;;;;14.38;11.48;;;;;;;13.69;71.87;97601.23;1847198;76;25769;-79
2021/06/18 04:21:44;;;;;;;12.82;10.53;;;;;;;13.76;71.81;97599.83;1855948;75;26650;-79
2021/06/18 04:24:14;;;;;;;16.45;11.43;;;;;;;13.82;71.92;97598.90;1846152;77;26500;-79
2021/06/18 04:26:42;;;;;;;20.30;11.10;;;;;;;13.89;71.81;97598.80;1845534;76;25708;-79
2021/06/18 04:29:09;;;;;;;16.48;11.85;;;;;;;13.94;71.74;97595.72;1838319;76;26838;-79
2021/06/18 04:31:36;;;;;;;14.83;11.60;;;;;;;14.00;71.88;97598.07;1859815;76;26322;-80
2021/06/18 04:34:06;;;;;;;19.92;12.37;;;;;;;14.02;71.89;97592.69;1845998;76;25744;-79
2021/06/18 04:36:34;;;;;;;21.55;13.28;;;;;;;14.08;71.79;97595.56;1845993;77;25729;-80
2021/06/18 04:39:01;;;;;;;22.48;12.63;;;;;;;14.13;71.84;97595.71;1846109;77;26284;-80
2021/06/18 04:41:28;;;;;;;21.35;13.53;;;;;;;14.18;71.85;97597.19;1846168;76;27086;-80
2021/06/18 04:43:54;;;;;;;24.40;14.03;;;;;;;14.24;71.88;97590.33;1845917;76;25765;-81
2021/06/18 04:46:21;;;;;;;19.87;13.65;;;;;;;14.32;71.96;97593.23;1845782;77;25866;-79
2021/06/18 04:48:48;;;;;;;19.00;13.03;;;;;;;14.38;71.88;97593.13;1874538;76;26518;-82
2021/06/18 04:51:17;;;;;;;17.85;12.90;;;;;;;14.45;71.83;97591.73;1846004;77;25756;-81
2021/06/18 04:53:45;;;;;;;20.45;13.65;;;;;;;14.50;71.82;97594.56;1816001;77;27236;-80
2021/06/18 04:56:13;;;;;;;18.90;12.82;;;;;;;14.56;71.84;97595.00;1845183;76;25839;-80
2021/06/18 04:58:40;;;;;;;23.20;13.80;;;;;;;14.63;71.88;97593.01;1832788;76;25733;-81
2021/06/18 05:01:07;;;;;;;20.85;14.25;;;;;;;14.70;71.82;97591.03;1841644;76;26418;-80
2021/06/18 05:03:34;;;;;;;21.45;13.88;;;;;;;14.80;71.85;97595.06;1858363;75;25208;-79
2021/06/18 05:06:00;;;;;;;21.40;13.48;;;;;;;14.87;71.74;97590.33;1860672;77;27339;-83
2021/06/18 05:08:27;;;;;;;21.65;12.90;;;;;;;14.95;71.64;97595.45;1860650;76;26115;-80
2021/06/18 05:10:54;;;;;;;17.98;12.85;;;;;;;15.03;71.62;97598.64;1887303;75;25738;-82
2021/06/18 05:13:20;;;;;;;21.50;12.65;;;;;;;15.11;71.70;97601.53;1884275;75;25809;-82
2021/06/18 05:15:47;;;;;;;20.88;12.35;;;;;;;15.21;71.77;97600.44;1845689;76;25549;-81
2021/06/18 05:18:14;;;;;;;22.15;14.03;;;;;;;15.30;71.73;97599.02;1852654;77;28171;-82
2021/06/18 05:20:42;;;;;;;17.57;12.60;;;;;;;15.38;71.50;97590.48;1860959;76;26170;-83
2021/06/18 05:23:11;;;;;;;17.55;12.37;;;;;;;15.47;71.44;97593.14;1838086;77;25772;-80
2021/06/18 05:25:38;;;;;;;17.75;12.18;;;;;;;15.56;71.30;97584.66;1847233;77;26507;-80
2021/06/18 05:28:05;;;;;;;19.10;12.35;;;;;;;15.66;71.19;97591.69;1860951;77;25878;-82
2021/06/18 05:30:31;;;;;;;17.05;10.53;;;;;;;15.75;71.17;97586.16;1860791;77;28192;-83
2021/06/18 05:32:58;;;;;;;14.85;11.10;;;;;;;15.84;71.17;97584.70;1860724;76;25227;-80
2021/06/18 05:35:25;;;;;;;15.08;10.82;;;;;;;15.95;71.17;97590.66;1860809;77;25705;-81
2021/06/18 05:37:52;;;;;;;12.98;10.80;;;;;;;16.04;70.99;97593.31;1860887;77;25747;-80
2021/06/18 05:40:19;;;;;;;17.57;11.48;;;;;;;16.15;70.91;97588.36;1860983;77;25729;-84
2021/06/18 05:42:45;;;;;;;16.65;11.70;;;;;;;16.26;70.87;97583.94;1860791;77;27300;-80
2021/06/18 05:45:13;;;;;;;23.50;11.93;;;;;;;16.36;70.96;97588.75;1860595;77;25798;-80
2021/06/18 05:47:39;;;;;;;12.85;10.90;;;;;;;16.45;70.85;97582.66;1851651;77;25681;-81
2021/06/18 06:01:42;;;;;;;16.23;11.53;;;;;;;17.59;69.38;97584.55;1772213;80;25679;-88
2021/06/18 06:04:09;;;;;;;14.00;10.68;;;;;;;17.64;69.25;97579.17;1745429;80;25830;-88
2021/06/18 06:06:36;;;;;;;18.35;10.88;;;;;;;17.70;69.00;97581.45;1756252;81;27519;-86
2021/06/18 06:09:03;;;;;;;15.78;11.00;;;;;;;17.78;68.86;97580.17;1787802;80;25714;-89
2021/06/18 06:11:30;;;;;;;16.23;11.12;;;;;;;17.85;68.72;97584.93;1741736;81;25724;-86
2021/06/18 06:14:00;;;;;;;15.75;10.72;;;;;;;17.93;68.57;97588.58;1754521;81;25333;-88
2021/06/18 06:16:27;;;;;;;14.75;10.50;;;;;;;18.00;68.35;97586.47;1747421;81;25818;-88
2021/06/18 06:18:53;;;;;;;14.50;10.45;;;;;;;18.10;68.50;97588.52;1783061;80;27353;-86
2021/06/18 06:21:21;;;;;;;16.30;10.45;;;;;;;18.19;68.37;97582.89;1788070;80;25848;-88
2021/06/18 06:23:48;;;;;;;13.50;10.35;;;;;;;18.28;68.15;97586.27;1783904;80;25744;-89
2021/06/18 06:26:14;;;;;;;12.90;10.20;;;;;;;18.42;68.26;97585.87;1787760;80;25709;-88
2021/06/18 06:28:41;;;;;;;11.83;9.93;;;;;;;18.57;68.11;97581.94;1787969;80;25699;-90
2021/06/18 06:31:08;;;;;;;11.30;8.65;;;;;;;18.68;67.93;97579.62;1787774;80;27501;-83
2021/06/18 06:33:34;;;;;;;14.30;10.78;;;;;;;18.78;67.20;97575.61;1787893;80;25786;-89
2021/06/18 06:36:01;;;;;;;11.93;9.75;;;;;;;18.89;66.76;97579.25;1787939;80;25631;-87
2021/06/18 06:38:28;;;;;;;12.30;9.75;;;;;;;18.99;66.85;97576.60;1788041;80;25636;-86
2021/06/18 06:40:55;;;;;;;11.60;8.88;;;;;;;19.10;67.07;97574.77;1787973;80;25707;-87
2021/06/18 06:43:22;;;;;;;11.43;8.98;;;;;;;19.23;66.66;97569.68;1788015;80;28187;-87
2021/06/18 06:45:49;;;;;;;11.00;8.23;;;;;;;19.41;66.33;97573.92;1787879;80;26538;-87
2021/06/18 06:48:16;;;;;;;12.80;8.65;;;;;;;19.58;66.21;97575.13;1788000;80;25852;-85
2021/06/18 06:50:43;;;;;;;10.60;8.98;;;;;;;19.68;65.75;97572.48;1787991;80;25707;-88
2021/06/18 06:53:09;;;;;;;12.95;8.93;;;;;;;19.76;65.32;97571.42;1787939;80;25723;-85
2021/06/18 06:55:37;;;;;;;12.93;9.45;;;;;;;19.88;65.09;97568.47;1787951;80;28379;-87
2021/06/18 06:58:05;;;;;;;12.20;8.88;;;;;;;19.99;64.66;97572.08;1787797;80;25787;-88
2021/06/18 07:00:32;;;;;;;14.23;9.95;;;;;;;20.08;64.29;97567.72;1787818;80;25727;-85
2021/06/18 07:02:58;;;;;;;13.25;9.30;;;;;;;20.20;64.14;97563.38;1787611;80;26460;-87
2021/06/18 07:05:25;;;;;;;12.65;9.08;;;;;;;20.29;63.87;97557.09;1787858;80;25690;-84
2021/06/18 07:07:51;;;;;;;11.35;9.00;;;;;;;20.37;63.64;97560.73;1787724;80;27393;-90
2021/06/18 07:10:18;;;;;;;10.78;8.78;;;;;;;20.49;63.63;97557.20;1787707;80;25722;-87
2021/06/18 07:12:45;;;;;;;9.85;8.45;;;;;;;20.64;63.46;97557.78;1787760;80;25739;-87
2021/06/18 07:15:13;;;;;;;10.35;9.25;;;;;;;20.76;63.33;97554.77;1787205;80;25723;-87
2021/06/18 07:17:40;;;;;;;12.25;9.20;;;;;;;20.87;62.89;97552.86;1787693;80;26232;-87
2021/06/18 07:20:07;;;;;;;9.50;8.60;;;;;;;20.98;62.72;97556.70;1787418;80;28267;-89
2021/06/18 07:22:34;;;;;;;12.30;8.78;;;;;;;21.08;62.32;97552.58;1787566;80;25862;-89
2021/06/18 07:25:01;;;;;;;9.18;8.28;;;;;;;21.19;62.11;97550.13;1787732;80;25944;-88
2021/06/18 07:27:27;;;;;;;11.33;8.25;;;;;;;21.30;62.25;97536.39;1787658;80;25836;-88
2021/06/18 07:29:54;;;;;;;9.75;8.75;;;;;;;21.44;62.35;97546.53;1787673;80;25795;-93
2021/06/18 07:32:24;;;;;;;11.45;8.60;;;;;;;21.59;62.19;97545.69;1787815;80;28251;-90
2021/06/18 07:34:51;;;;;;;9.63;8.63;;;;;;;21.79;61.91;97542.05;1787729;80;25786;-92
2021/06/18 07:37:17;;;;;;;11.18;9.00;;;;;;;21.93;62.10;97532.10;1787602;80;25767;-91
2021/06/18 07:39:44;;;;;;;10.23;8.95;;;;;;;22.10;62.05;97533.14;1787757;80;25790;-87
2021/06/18 07:42:11;;;;;;;10.48;8.98;;;;;;;22.25;61.59;97528.95;1787669;80;25829;-88
2021/06/18 07:44:38;;;;;;;11.78;8.58;;;;;;;22.38;61.18;97522.00;1787331;80;27466;-89
2021/06/18 07:47:06;;;;;;;12.50;8.83;;;;;;;22.48;60.69;97521.38;1787185;80;25828;-87
2021/06/18 07:49:34;;;;;;;15.95;9.68;;;;;;;22.73;59.99;97513.51;1787169;80;25855;-89
2021/06/18 07:52:01;;;;;;;12.30;8.13;;;;;;;22.73;59.99;97513.51;1787408;80;25818;-90
2021/06/18 07:54:28;;;;;;;16.07;8.75;;;;;;;22.83;59.67;97507.13;1787480;80;25710;-91
2021/06/18 07:56:55;;;;;;;10.48;9.10;;;;;;;23.05;59.78;97510.27;1787489;80;27293;-88
2021/06/18 07:59:22;;;;;;;11.88;8.60;;;;;;;23.22;59.24;97512.02;1783049;80;25766;-86
2021/06/18 08:01:48;;;;;;;10.70;8.50;;;;;;;23.40;58.79;97494.50;1787115;80;25869;-85
2021/06/18 08:04:15;;;;;;;9.63;7.67;;;;;;;23.84;58.31;97503.39;1787331;80;25766;-87
2021/06/18 08:06:41;;;;;;;8.58;7.33;;;;;;;24.30;58.18;97502.81;1787313;80;25273;-86
2021/06/18 08:09:08;;;;;;;7.37;6.65;;;;;;;24.80;57.43;97503.17;1787327;80;28541;-90
2021/06/18 08:11:36;;;;;;;10.03;6.92;;;;;;;25.28;56.11;97500.44;1787181;80;25783;-90
2021/06/18 08:14:04;;;;;;;8.05;7.20;;;;;;;25.79;55.40;97496.75;1787389;80;25821;-91
2021/06/18 08:16:31;;;;;;;7.87;6.90;;;;;;;26.26;54.52;97496.85;1787084;80;25841;-92
2021/06/18 08:18:57;;;;;;;7.55;6.75;;;;;;;26.68;54.22;97498.42;1787375;80;26251;-90
2021/06/18 08:21:24;;;;;;;6.87;6.08;;;;;;;27.03;53.19;97498.72;1787158;80;27156;-90
2021/06/18 08:23:51;;;;;;;8.83;6.03;;;;;;;27.40;52.82;97506.61;1787231;80;25785;-89
2021/06/18 08:26:18;;;;;;;9.23;7.75;;;;;;;27.75;51.77;97505.42;1787207;80;25750;-92
2021/06/18 08:28:45;;;;;;;8.00;6.90;;;;;;;28.03;51.29;97505.42;1787356;79;25877;-93
2021/06/18 08:31:11;;;;;;;7.55;6.50;;;;;;;28.33;50.19;97499.58;1787400;80;25762;-91
2021/06/18 08:33:38;;;;;;;6.35;5.45;;;;;;;28.60;49.21;97497.09;1787251;80;27497;-90
2021/06/18 08:36:06;;;;;;;8.60;6.00;;;;;;;28.90;48.48;97493.34;1787298;80;25723;-86
2021/06/18 08:38:35;;;;;;;7.75;6.47;;;;;;;29.21;47.58;97489.56;1787276;80;25570;-84
2021/06/18 08:41:04;;;;;;;6.53;5.83;;;;;;;29.48;47.15;97487.78;1787391;80;25640;-91
2021/06/18 08:43:32;;;;;;;8.73;4.90;;;;;;;29.78;46.53;97483.67;1779971;80;25768;-86
2021/06/18 08:46:02;;;;;;;6.78;5.33;;;;;;;30.03;45.59;97478.02;1787315;80;28367;-90
2021/06/18 08:48:31;;;;;;;6.72;5.67;;;;;;;30.04;45.36;97481.62;1752261;80;25798;-92
2021/06/18 08:51:00;;;;;;;5.87;5.33;;;;;;;30.28;44.74;97479.02;1764907;80;26349;-92
2021/06/18 08:53:28;;;;;;;6.47;4.53;;;;;;;30.59;44.20;97475.86;1772549;79;25272;-96
2021/06/18 08:55:55;;;;;;;5.35;4.85;;;;;;;30.76;43.40;97480.49;1729310;80;25700;-89
2021/06/18 08:58:22;;;;;;;6.70;4.80;;;;;;;31.02;42.53;97478.30;1786358;79;28085;-90
2021/06/18 09:00:51;;;;;;;11.20;4.97;;;;;;;31.23;42.08;97474.67;1780925;79;25751;-86
2021/06/18 09:03:47;;;;;;;5.62;5.03;;;;;;;31.58;41.53;97479.28;1758760;80;25452;-92
2021/06/18 09:06:39;;;;;;;4.62;4.20;;;;;;;31.75;41.29;97475.75;1758894;80;25732;-86
2021/06/18 09:09:10;;;;;;;6.50;4.10;;;;;;;32.01;40.47;97480.15;1758961;80;25660;-90
2021/06/18 09:11:45;;;;;;;6.53;4.78;;;;;;;32.26;40.32;97469.23;1756691;80;27356;-89
2021/06/18 09:14:30;;;;;;;7.25;4.42;;;;;;;32.62;39.83;97468.92;1696279;84;25794;-90
2021/06/18 09:17:20;;;;;;;6.35;3.98;;;;;;;32.90;39.06;97467.02;1726248;81;25649;-87
2021/06/18 09:19:56;;;;;;;4.42;3.95;;;;;;;33.11;38.25;97462.02;1742161;82;25867;-92
2021/06/18 09:22:36;;;;;;;5.60;4.60;;;;;;;33.41;37.94;97458.88;1755614;81;25677;-85
2021/06/18 09:25:09;;;;;;;6.30;4.17;;;;;;;33.43;37.01;97459.33;1745805;81;27496;-88
2021/06/18 09:27:43;;;;;;;5.28;4.03;;;;;;;33.37;36.20;97449.56;1725414;81;25756;-87
2021/06/18 09:30:32;;;;;;;6.58;4.28;;;;;;;33.51;35.86;97458.34;1725469;81;25883;-84
2021/06/18 09:33:11;;;;;;;3.98;3.58;;;;;;;33.48;34.68;97453.45;1739156;81;26355;-91
2021/06/18 09:35:40;;;;;;;4.97;4.55;;;;;;;33.47;35.30;97458.82;1725968;81;26493;-89
2021/06/18 09:38:08;;;;;;;4.42;4.03;;;;;;;33.65;34.97;97458.72;1720179;81;27434;-88
2021/06/18 09:40:35;;;;;;;5.35;3.83;;;;;;;33.81;35.14;97451.14;1746719;81;25996;-91
2021/06/18 09:43:15;;;;;;;4.22;3.83;;;;;;;33.95;34.27;97455.70;1725717;81;25874;-96
2021/06/18 09:45:39;;;;;;;4.15;3.75;;;;;;;33.89;34.27;97452.15;1725353;81;25876;-92
2021/06/18 09:48:13;;;;;;;5.65;4.42;;;;;;;33.78;33.72;97451.89;1725526;81;25721;-92
2021/06/18 09:50:50;;;;;;;4.05;3.65;;;;;;;33.36;33.99;97456.33;1730111;81;27375;-86
2021/06/18 09:53:26;;;;;;;5.28;4.35;;;;;;;33.39;34.31;97453.63;1725319;81;25720;-85
2021/06/18 09:56:10;;;;;;;5.60;4.20;;;;;;;33.46;34.07;97450.20;1725169;81;25776;-91
2021/06/18 09:58:41;;;;;;;5.47;3.98;;;;;;;33.23;33.86;97444.36;1725299;81;25701;-87
2021/06/18 10:01:19;;;;;;;;;;;;;;;32.87;33.56;97437.78;1747293;81;26067;-89
2021/06/18 10:04:06;;;;;;;7.78;3.83;;;;;;;32.89;33.65;97436.84;1756625;81;28412;-89
2021/06/18 10:06:36;;;;;;;6.17;4.45;;;;;;;33.00;33.87;97437.14;1747000;81;26582;-88
2021/06/18 10:09:06;;;;;;;5.47;4.33;;;;;;;32.97;33.98;97433.66;1737830;80;25258;-87
2021/06/18 10:11:34;;;;;;;4.78;4.28;;;;;;;32.73;34.20;97437.36;1748715;80;26258;-84
2021/06/18 10:14:02;;;;;;;4.80;4.30;;;;;;;32.44;34.26;97435.69;1756133;81;25719;-90
2021/06/18 10:16:30;;;;;;;8.53;4.92;;;;;;;32.32;34.53;97437.12;1735095;81;27449;-84
2021/06/18 10:18:59;;;;;;;6.10;4.50;;;;;;;32.35;34.87;97433.63;1753986;80;26150;-88
2021/06/18 10:21:29;;;;;;;6.05;4.50;;;;;;;32.51;34.97;97428.91;1754826;81;25736;-91
2021/06/18 10:24:00;;;;;;;9.88;4.33;;;;;;;32.51;34.47;97423.33;1752978;80;25478;-90
2021/06/18 10:26:29;;;;;;;4.90;4.50;;;;;;;32.62;34.84;97427.02;1723742;83;25325;-92
2021/06/18 10:28:59;;;;;;;6.17;4.20;;;;;;;32.79;34.77;97424.78;1757596;80;27477;-83
2021/06/18 10:31:36;;;;;;;6.42;4.10;;;;;;;32.92;34.96;97424.14;1786053;79;26044;-83
2021/06/18 10:34:17;;;;;;;6.87;4.30;;;;;;;32.96;34.54;97423.67;1750982;80;25387;-90
2021/06/18 10:36:45;;;;;;;4.60;4.10;;;;;;;33.03;34.09;97423.04;1756331;80;26399;-84
2021/06/18 10:39:20;;;;;;;4.85;4.10;;;;;;;32.93;33.63;97407.59;1783903;79;25729;-89
2021/06/18 10:41:53;;;;;;;5.10;4.45;;;;;;;33.03;33.73;97411.27;1726330;81;27465;-93
2021/06/18 10:44:41;;;;;;;8.05;4.15;;;;;;;33.11;33.64;97414.48;1754924;81;25717;-89
2021/06/18 10:47:32;;;;;;;7.28;4.20;;;;;;;33.21;33.63;97410.34;1754992;81;25356;-91
2021/06/18 10:50:00;;;;;;;4.97;4.17;;;;;;;33.25;33.36;97410.70;1769995;80;25820;-90
2021/06/18 10:52:37;;;;;;;5.90;4.15;;;;;;;33.24;33.48;97412.45;1750816;80;25773;-90
2021/06/18 10:55:05;;;;;;;5.30;4.30;;;;;;;33.38;33.80;97410.04;1794247;79;27221;-89
2021/06/18 10:57:32;;;;;;;4.12;3.72;;;;;;;33.46;33.63;97402.63;1745476;80;25790;-90
2021/06/18 11:00:21;;;;;;;8.28;5.00;;;;;;;33.52;33.38;97399.80;1765482;81;25796;-87
2021/06/18 11:02:49;;;;;;;4.90;4.37;;;;;;;33.50;33.36;97400.75;1742949;80;25785;-88
2021/06/18 11:05:25;;;;;;;5.53;4.80;;;;;;;33.53;33.15;97396.65;1720259;82;25797;-93
2021/06/18 11:08:18;;;;;;;5.12;4.62;;;;;;;33.57;32.92;97401.73;1765257;80;27677;-94
2021/06/18 11:10:45;;;;;;;4.90;4.40;;;;;;;33.64;33.04;97396.91;1761951;80;25842;-89
2021/06/18 11:13:12;;;;;;;5.00;4.42;;;;;;;33.68;33.20;97397.83;1770490;79;25760;-94
2021/06/18 11:15:42;;;;;;;5.42;4.85;;;;;;;33.56;33.17;97397.34;1760712;80;25701;-92
2021/06/18 11:18:16;;;;;;;6.55;5.17;;;;;;;33.56;33.14;97392.33;1759460;80;25740;-88
2021/06/18 11:20:52;;;;;;;5.83;5.17;;;;;;;33.62;33.26;97388.06;1753828;80;27370;-90
2021/06/18 11:23:24;;;;;;;6.28;5.00;;;;;;;33.62;33.32;97389.46;1724748;82;25670;-90
2021/06/18 11:26:10;;;;;;;10.53;4.80;;;;;;;33.65;33.23;97385.13;1724970;83;25689;-87
2021/06/18 11:28:43;;;;;;;5.83;4.62;;;;;;;33.62;32.89;97378.27;1732410;81;25799;-90
2021/06/18 11:31:23;;;;;;;5.35;4.85;;;;;;;33.54;32.84;97375.08;1727571;81;25276;-94
2021/06/18 11:33:59;;;;;;;5.67;5.22;;;;;;;33.59;33.13;97371.98;1724966;81;27442;-96
2021/06/18 11:36:39;;;;;;;7.92;5.12;;;;;;;33.60;33.11;97373.61;1739386;81;25795;-87
2021/06/18 11:39:15;;;;;;;8.38;5.42;;;;;;;33.57;33.36;97375.76;1725142;81;25812;-89
2021/06/18 11:41:47;;;;;;;7.35;5.17;;;;;;;33.58;33.50;97368.96;1725223;81;26236;-91
2021/06/18 11:44:16;;;;;;;;;;;;;;;33.62;33.52;97358.67;1728573;81;25932;-91
2021/06/18 11:46:44;;;;;;;6.35;5.67;;;;;;;33.68;33.11;97355.03;1725256;81;27580;-89
2021/06/18 11:49:21;;;;;;;5.60;5.03;;;;;;;33.68;33.37;97350.24;1725035;81;25760;-86
2021/06/18 11:51:46;;;;;;;5.75;5.05;;;;;;;33.53;32.75;97352.46;1722215;81;25774;-89